sensor_id;sensor_type;location;lat;lon;timestamp;P1;durP1;ratioP1;P2;durP2;ratioP2
7473;SDS011;3778;42.572;23.426;2023-02-12T00:01:13;11.67;;;6.77;;
7473;SDS011;3778;42.572;23.426;2023-02-12T00:03:41;11.80;;;6.37;;
7473;SDS011;3778;42.572;23.426;2023-02-12T00:06:08;10.67;;;6.60;;
7473;SDS011;3778;42.572;23.426;2023-02-12T00:08:37;13.17;;;5.87;;
7473;SDS011;3778;42.572;23.426;2023-02-12T00:11:08;12.40;;;5.47;;
7473;SDS011;3778;42.572;23.426;2023-02-12T00:13:36;12.07;;;5.63;;
7473;SDS011;3778;42.572;23.426;2023-02-12T00:16:04;10.40;;;5.67;;
7473;SDS011;3778;42.572;23.426;2023-02-12T00:18:32;12.43;;;5.33;;
7473;SDS011;3778;42.572;23.426;2023-02-12T00:20:59;9.23;;;4.90;;
7473;SDS011;3778;42.572;23.426;2023-02-12T00:23:26;7.73;;;4.63;;
7473;SDS011;3778;42.572;23.426;2023-02-12T00:25:54;11.47;;;5.83;;
7473;SDS011;3778;42.572;23.426;2023-02-12T00:28:21;8.47;;;5.13;;
7473;SDS011;3778;42.572;23.426;2023-02-12T00:30:48;8.60;;;4.60;;
7473;SDS011;3778;42.572;23.426;2023-02-12T00:33:15;7.13;;;3.87;;
7473;SDS011;3778;42.572;23.426;2023-02-12T00:35:41;8.07;;;3.63;;
7473;SDS011;3778;42.572;23.426;2023-02-12T00:38:08;7.40;;;4.27;;
7473;SDS011;3778;42.572;23.426;2023-02-12T00:40:35;9.33;;;4.40;;
7473;SDS011;3778;42.572;23.426;2023-02-12T00:43:03;9.50;;;4.83;;
7473;SDS011;3778;42.572;23.426;2023-02-12T00:45:30;6.43;;;4.30;;
7473;SDS011;3778;42.572;23.426;2023-02-12T00:47:56;8.70;;;4.37;;
7473;SDS011;3778;42.572;23.426;2023-02-12T00:50:23;6.47;;;3.70;;
7473;SDS011;3778;42.572;23.426;2023-02-12T00:52:50;4.07;;;3.13;;
7473;SDS011;3778;42.572;23.426;2023-02-12T00:55:16;7.53;;;4.10;;
7473;SDS011;3778;42.572;23.426;2023-02-12T00:57:43;6.57;;;3.40;;
7473;SDS011;3778;42.572;23.426;2023-02-12T01:00:12;7.37;;;3.60;;
7473;SDS011;3778;42.572;23.426;2023-02-12T01:02:40;6.73;;;3.73;;
7473;SDS011;3778;42.572;23.426;2023-02-12T01:05:06;8.37;;;4.00;;
7473;SDS011;3778;42.572;23.426;2023-02-12T01:07:33;6.40;;;3.33;;
7473;SDS011;3778;42.572;23.426;2023-02-12T01:10:00;5.20;;;3.37;;
7473;SDS011;3778;42.572;23.426;2023-02-12T01:12:27;8.40;;;3.53;;
7473;SDS011;3778;42.572;23.426;2023-02-12T01:14:53;5.70;;;2.80;;
7473;SDS011;3778;42.572;23.426;2023-02-12T01:17:21;4.57;;;2.73;;
7473;SDS011;3778;42.572;23.426;2023-02-12T01:19:48;4.37;;;3.20;;
7473;SDS011;3778;42.572;23.426;2023-02-12T01:22:15;5.33;;;3.43;;
7473;SDS011;3778;42.572;23.426;2023-02-12T01:24:42;5.67;;;3.00;;
7473;SDS011;3778;42.572;23.426;2023-02-12T01:27:08;8.43;;;3.17;;
7473;SDS011;3778;42.572;23.426;2023-02-12T01:29:35;3.63;;;2.67;;
7473;SDS011;3778;42.572;23.426;2023-02-12T01:32:03;4.10;;;2.73;;
7473;SDS011;3778;42.572;23.426;2023-02-12T01:34:31;4.37;;;2.50;;
7473;SDS011;3778;42.572;23.426;2023-02-12T01:36:58;4.50;;;3.10;;
7473;SDS011;3778;42.572;23.426;2023-02-12T01:39:25;4.60;;;2.90;;
7473;SDS011;3778;42.572;23.426;2023-02-12T01:41:51;4.03;;;2.47;;
7473;SDS011;3778;42.572;23.426;2023-02-12T01:44:19;3.97;;;2.73;;
7473;SDS011;3778;42.572;23.426;2023-02-12T01:46:48;7.33;;;3.23;;
7473;SDS011;3778;42.572;23.426;2023-02-12T01:49:17;3.47;;;2.73;;
7473;SDS011;3778;42.572;23.426;2023-02-12T01:51:49;3.87;;;2.53;;
7473;SDS011;3778;42.572;23.426;2023-02-12T01:54:18;5.47;;;3.33;;
7473;SDS011;3778;42.572;23.426;2023-02-12T01:56:49;4.50;;;2.50;;
7473;SDS011;3778;42.572;23.426;2023-02-12T01:59:16;4.10;;;2.37;;
7473;SDS011;3778;42.572;23.426;2023-02-12T02:01:45;5.33;;;3.47;;
7473;SDS011;3778;42.572;23.426;2023-02-12T02:04:12;19.37;;;3.73;;
7473;SDS011;3778;42.572;23.426;2023-02-12T02:06:46;4.20;;;2.30;;
7473;SDS011;3778;42.572;23.426;2023-02-12T02:09:16;4.67;;;2.83;;
7473;SDS011;3778;42.572;23.426;2023-02-12T02:11:45;5.20;;;2.47;;
7473;SDS011;3778;42.572;23.426;2023-02-12T02:14:29;8.00;;;3.70;;
7473;SDS011;3778;42.572;23.426;2023-02-12T02:17:06;8.27;;;4.00;;
7473;SDS011;3778;42.572;23.426;2023-02-12T02:19:49;6.00;;;2.83;;
7473;SDS011;3778;42.572;23.426;2023-02-12T02:22:37;6.93;;;3.27;;
7473;SDS011;3778;42.572;23.426;2023-02-12T02:25:35;7.97;;;3.20;;
7473;SDS011;3778;42.572;23.426;2023-02-12T02:28:27;6.37;;;2.97;;
7473;SDS011;3778;42.572;23.426;2023-02-12T02:31:08;8.23;;;3.07;;
7473;SDS011;3778;42.572;23.426;2023-02-12T02:33:44;7.17;;;3.40;;
7473;SDS011;3778;42.572;23.426;2023-02-12T02:36:22;4.83;;;2.37;;
7473;SDS011;3778;42.572;23.426;2023-02-12T02:38:55;3.10;;;2.13;;
7473;SDS011;3778;42.572;23.426;2023-02-12T02:41:28;3.83;;;2.57;;
7473;SDS011;3778;42.572;23.426;2023-02-12T02:44:00;6.70;;;3.80;;
7473;SDS011;3778;42.572;23.426;2023-02-12T02:46:33;5.13;;;2.20;;
7473;SDS011;3778;42.572;23.426;2023-02-12T02:49:02;4.33;;;2.90;;
7473;SDS011;3778;42.572;23.426;2023-02-12T02:51:32;3.80;;;2.67;;
7473;SDS011;3778;42.572;23.426;2023-02-12T02:54:03;4.07;;;2.83;;
7473;SDS011;3778;42.572;23.426;2023-02-12T02:56:32;5.03;;;3.47;;
7473;SDS011;3778;42.572;23.426;2023-02-12T02:59:03;5.43;;;3.17;;
7473;SDS011;3778;42.572;23.426;2023-02-12T03:01:35;5.47;;;3.13;;
7473;SDS011;3778;42.572;23.426;2023-02-12T03:04:07;5.90;;;2.57;;
7473;SDS011;3778;42.572;23.426;2023-02-12T03:06:40;11.47;;;4.23;;
7473;SDS011;3778;42.572;23.426;2023-02-12T03:09:13;5.07;;;3.13;;
7473;SDS011;3778;42.572;23.426;2023-02-12T03:11:44;5.87;;;3.47;;
7473;SDS011;3778;42.572;23.426;2023-02-12T03:14:11;7.63;;;4.27;;
7473;SDS011;3778;42.572;23.426;2023-02-12T03:16:47;9.10;;;4.17;;
7473;SDS011;3778;42.572;23.426;2023-02-12T03:19:20;10.17;;;4.70;;
7473;SDS011;3778;42.572;23.426;2023-02-12T03:21:51;9.50;;;4.10;;
7473;SDS011;3778;42.572;23.426;2023-02-12T03:24:23;9.23;;;4.03;;
7473;SDS011;3778;42.572;23.426;2023-02-12T03:26:57;8.23;;;3.40;;
7473;SDS011;3778;42.572;23.426;2023-02-12T03:29:28;10.33;;;4.63;;
7473;SDS011;3778;42.572;23.426;2023-02-12T03:32:01;4.87;;;3.43;;
7473;SDS011;3778;42.572;23.426;2023-02-12T03:34:40;9.50;;;4.80;;
7473;SDS011;3778;42.572;23.426;2023-02-12T03:37:15;7.83;;;5.40;;
7473;SDS011;3778;42.572;23.426;2023-02-12T03:39:47;9.03;;;4.83;;
7473;SDS011;3778;42.572;23.426;2023-02-12T03:42:18;12.80;;;7.30;;
7473;SDS011;3778;42.572;23.426;2023-02-12T03:44:52;10.03;;;5.37;;
7473;SDS011;3778;42.572;23.426;2023-02-12T03:47:26;14.07;;;6.00;;
7473;SDS011;3778;42.572;23.426;2023-02-12T03:50:02;10.73;;;5.13;;
7473;SDS011;3778;42.572;23.426;2023-02-12T03:52:35;6.57;;;3.50;;
7473;SDS011;3778;42.572;23.426;2023-02-12T03:55:02;13.50;;;5.80;;
7473;SDS011;3778;42.572;23.426;2023-02-12T03:57:32;12.77;;;4.83;;
7473;SDS011;3778;42.572;23.426;2023-02-12T04:00:05;9.97;;;5.27;;
7473;SDS011;3778;42.572;23.426;2023-02-12T04:02:35;5.87;;;4.17;;
7473;SDS011;3778;42.572;23.426;2023-02-12T04:05:03;6.10;;;4.37;;
7473;SDS011;3778;42.572;23.426;2023-02-12T04:07:30;8.70;;;5.40;;
7473;SDS011;3778;42.572;23.426;2023-02-12T04:09:58;14.93;;;5.27;;
7473;SDS011;3778;42.572;23.426;2023-02-12T04:12:29;10.00;;;4.87;;
7473;SDS011;3778;42.572;23.426;2023-02-12T04:15:04;8.40;;;4.57;;
7473;SDS011;3778;42.572;23.426;2023-02-12T04:17:42;9.50;;;4.53;;
7473;SDS011;3778;42.572;23.426;2023-02-12T04:20:15;9.33;;;4.43;;
7473;SDS011;3778;42.572;23.426;2023-02-12T04:22:52;9.63;;;4.10;;
7473;SDS011;3778;42.572;23.426;2023-02-12T04:25:26;5.40;;;4.00;;
7473;SDS011;3778;42.572;23.426;2023-02-12T04:28:09;7.03;;;3.87;;
7473;SDS011;3778;42.572;23.426;2023-02-12T04:30:44;8.47;;;4.60;;
7473;SDS011;3778;42.572;23.426;2023-02-12T04:33:21;12.60;;;6.50;;
7473;SDS011;3778;42.572;23.426;2023-02-12T04:35:51;8.17;;;4.83;;
7473;SDS011;3778;42.572;23.426;2023-02-12T04:38:24;8.90;;;4.37;;
7473;SDS011;3778;42.572;23.426;2023-02-12T04:40:54;9.53;;;5.00;;
7473;SDS011;3778;42.572;23.426;2023-02-12T04:43:28;12.50;;;5.90;;
7473;SDS011;3778;42.572;23.426;2023-02-12T04:45:55;9.27;;;5.03;;
7473;SDS011;3778;42.572;23.426;2023-02-12T04:48:23;10.13;;;4.73;;
7473;SDS011;3778;42.572;23.426;2023-02-12T04:50:50;11.93;;;4.83;;
7473;SDS011;3778;42.572;23.426;2023-02-12T04:53:17;16.40;;;8.33;;
7473;SDS011;3778;42.572;23.426;2023-02-12T04:55:44;15.50;;;7.70;;
7473;SDS011;3778;42.572;23.426;2023-02-12T04:58:11;12.97;;;6.03;;
7473;SDS011;3778;42.572;23.426;2023-02-12T05:00:38;7.77;;;5.60;;
7473;SDS011;3778;42.572;23.426;2023-02-12T05:03:05;12.87;;;5.13;;
7473;SDS011;3778;42.572;23.426;2023-02-12T05:05:33;19.67;;;8.40;;
7473;SDS011;3778;42.572;23.426;2023-02-12T05:08:00;12.07;;;5.97;;
7473;SDS011;3778;42.572;23.426;2023-02-12T05:10:26;11.77;;;5.40;;
7473;SDS011;3778;42.572;23.426;2023-02-12T05:12:54;12.67;;;6.57;;
7473;SDS011;3778;42.572;23.426;2023-02-12T05:15:21;11.37;;;5.80;;
7473;SDS011;3778;42.572;23.426;2023-02-12T05:17:48;10.33;;;4.93;;
7473;SDS011;3778;42.572;23.426;2023-02-12T05:20:14;8.63;;;4.43;;
7473;SDS011;3778;42.572;23.426;2023-02-12T05:22:43;9.43;;;4.70;;
7473;SDS011;3778;42.572;23.426;2023-02-12T05:25:09;13.60;;;4.40;;
7473;SDS011;3778;42.572;23.426;2023-02-12T05:27:36;9.40;;;5.23;;
7473;SDS011;3778;42.572;23.426;2023-02-12T05:30:03;8.90;;;4.73;;
7473;SDS011;3778;42.572;23.426;2023-02-12T05:32:30;13.93;;;7.17;;
7473;SDS011;3778;42.572;23.426;2023-02-12T05:34:57;10.87;;;5.93;;
7473;SDS011;3778;42.572;23.426;2023-02-12T05:37:24;15.93;;;8.47;;
7473;SDS011;3778;42.572;23.426;2023-02-12T05:39:52;12.97;;;6.23;;
7473;SDS011;3778;42.572;23.426;2023-02-12T05:42:19;12.30;;;6.57;;
7473;SDS011;3778;42.572;23.426;2023-02-12T05:44:46;14.40;;;6.00;;
7473;SDS011;3778;42.572;23.426;2023-02-12T05:47:12;13.90;;;7.03;;
7473;SDS011;3778;42.572;23.426;2023-02-12T05:49:39;18.27;;;9.70;;
7473;SDS011;3778;42.572;23.426;2023-02-12T05:52:06;18.90;;;8.63;;
7473;SDS011;3778;42.572;23.426;2023-02-12T05:54:33;18.93;;;8.90;;
7473;SDS011;3778;42.572;23.426;2023-02-12T05:57:01;15.33;;;8.00;;
7473;SDS011;3778;42.572;23.426;2023-02-12T05:59:28;15.13;;;8.97;;
7473;SDS011;3778;42.572;23.426;2023-02-12T06:01:55;16.33;;;8.50;;
7473;SDS011;3778;42.572;23.426;2023-02-12T06:04:23;15.77;;;6.83;;
7473;SDS011;3778;42.572;23.426;2023-02-12T06:06:53;17.17;;;8.43;;
7473;SDS011;3778;42.572;23.426;2023-02-12T06:09:21;14.10;;;7.60;;
7473;SDS011;3778;42.572;23.426;2023-02-12T06:11:48;11.33;;;6.50;;
7473;SDS011;3778;42.572;23.426;2023-02-12T06:14:17;18.87;;;6.23;;
7473;SDS011;3778;42.572;23.426;2023-02-12T06:16:46;19.97;;;8.80;;
7473;SDS011;3778;42.572;23.426;2023-02-12T06:19:15;13.07;;;6.23;;
7473;SDS011;3778;42.572;23.426;2023-02-12T06:21:42;12.27;;;7.13;;
7473;SDS011;3778;42.572;23.426;2023-02-12T06:24:10;8.80;;;4.73;;
7473;SDS011;3778;42.572;23.426;2023-02-12T06:26:37;9.93;;;4.87;;
7473;SDS011;3778;42.572;23.426;2023-02-12T06:29:04;10.63;;;6.43;;
7473;SDS011;3778;42.572;23.426;2023-02-12T06:31:32;8.87;;;5.67;;
7473;SDS011;3778;42.572;23.426;2023-02-12T06:34:01;9.47;;;6.13;;
7473;SDS011;3778;42.572;23.426;2023-02-12T06:36:30;8.07;;;4.77;;
7473;SDS011;3778;42.572;23.426;2023-02-12T06:38:59;12.07;;;6.30;;
7473;SDS011;3778;42.572;23.426;2023-02-12T06:41:26;11.47;;;7.03;;
7473;SDS011;3778;42.572;23.426;2023-02-12T06:43:52;7.70;;;4.17;;
7473;SDS011;3778;42.572;23.426;2023-02-12T06:46:20;8.97;;;5.97;;
7473;SDS011;3778;42.572;23.426;2023-02-12T06:48:51;11.03;;;6.50;;
7473;SDS011;3778;42.572;23.426;2023-02-12T06:51:18;10.87;;;6.00;;
7473;SDS011;3778;42.572;23.426;2023-02-12T06:53:46;11.23;;;6.20;;
7473;SDS011;3778;42.572;23.426;2023-02-12T06:56:13;9.97;;;5.70;;
7473;SDS011;3778;42.572;23.426;2023-02-12T06:58:41;8.30;;;5.00;;
7473;SDS011;3778;42.572;23.426;2023-02-12T07:01:09;11.83;;;7.47;;
7473;SDS011;3778;42.572;23.426;2023-02-12T07:03:37;8.07;;;5.50;;
7473;SDS011;3778;42.572;23.426;2023-02-12T07:06:07;13.30;;;7.20;;
7473;SDS011;3778;42.572;23.426;2023-02-12T07:08:34;16.20;;;6.23;;
7473;SDS011;3778;42.572;23.426;2023-02-12T07:11:01;14.13;;;6.83;;
7473;SDS011;3778;42.572;23.426;2023-02-12T07:13:30;7.20;;;4.90;;
7473;SDS011;3778;42.572;23.426;2023-02-12T07:16:01;15.43;;;7.10;;
7473;SDS011;3778;42.572;23.426;2023-02-12T07:18:29;8.53;;;4.73;;
7473;SDS011;3778;42.572;23.426;2023-02-12T07:20:56;13.00;;;6.20;;
7473;SDS011;3778;42.572;23.426;2023-02-12T07:23:24;8.43;;;5.40;;
7473;SDS011;3778;42.572;23.426;2023-02-12T07:25:54;14.20;;;7.43;;
7473;SDS011;3778;42.572;23.426;2023-02-12T07:28:21;12.77;;;7.60;;
7473;SDS011;3778;42.572;23.426;2023-02-12T07:30:48;13.70;;;7.37;;
7473;SDS011;3778;42.572;23.426;2023-02-12T07:33:15;12.63;;;6.63;;
7473;SDS011;3778;42.572;23.426;2023-02-12T07:35:42;15.03;;;7.30;;
7473;SDS011;3778;42.572;23.426;2023-02-12T07:38:09;14.53;;;7.63;;
7473;SDS011;3778;42.572;23.426;2023-02-12T07:40:37;14.17;;;6.87;;
7473;SDS011;3778;42.572;23.426;2023-02-12T07:43:04;12.73;;;7.13;;
7473;SDS011;3778;42.572;23.426;2023-02-12T07:45:30;13.03;;;6.73;;
7473;SDS011;3778;42.572;23.426;2023-02-12T07:47:57;12.67;;;7.57;;
7473;SDS011;3778;42.572;23.426;2023-02-12T07:50:24;10.93;;;6.97;;
7473;SDS011;3778;42.572;23.426;2023-02-12T07:52:50;18.13;;;7.40;;
7473;SDS011;3778;42.572;23.426;2023-02-12T07:55:17;14.27;;;7.90;;
7473;SDS011;3778;42.572;23.426;2023-02-12T07:57:45;12.90;;;6.17;;
7473;SDS011;3778;42.572;23.426;2023-02-12T08:00:12;13.30;;;7.10;;
7473;SDS011;3778;42.572;23.426;2023-02-12T08:02:40;14.73;;;8.57;;
7473;SDS011;3778;42.572;23.426;2023-02-12T08:05:07;14.53;;;7.40;;
7473;SDS011;3778;42.572;23.426;2023-02-12T08:07:33;18.53;;;9.30;;
7473;SDS011;3778;42.572;23.426;2023-02-12T08:10:00;16.43;;;7.90;;
7473;SDS011;3778;42.572;23.426;2023-02-12T08:12:27;17.43;;;9.40;;
7473;SDS011;3778;42.572;23.426;2023-02-12T08:14:55;18.43;;;8.70;;
7473;SDS011;3778;42.572;23.426;2023-02-12T08:17:21;15.50;;;8.60;;
7473;SDS011;3778;42.572;23.426;2023-02-12T08:19:48;14.90;;;8.03;;
7473;SDS011;3778;42.572;23.426;2023-02-12T08:22:15;13.73;;;7.97;;
7473;SDS011;3778;42.572;23.426;2023-02-12T08:24:41;15.30;;;8.70;;
7473;SDS011;3778;42.572;23.426;2023-02-12T08:27:08;27.93;;;9.13;;
7473;SDS011;3778;42.572;23.426;2023-02-12T08:29:35;16.00;;;9.23;;
7473;SDS011;3778;42.572;23.426;2023-02-12T08:32:03;17.17;;;9.20;;
7473;SDS011;3778;42.572;23.426;2023-02-12T08:34:34;16.17;;;8.33;;
7473;SDS011;3778;42.572;23.426;2023-02-12T08:37:02;19.17;;;9.20;;
7473;SDS011;3778;42.572;23.426;2023-02-12T08:39:31;18.83;;;10.97;;
7473;SDS011;3778;42.572;23.426;2023-02-12T08:41:58;18.57;;;10.00;;
7473;SDS011;3778;42.572;23.426;2023-02-12T08:44:25;17.40;;;8.40;;
7473;SDS011;3778;42.572;23.426;2023-02-12T08:46:52;22.37;;;8.67;;
7473;SDS011;3778;42.572;23.426;2023-02-12T08:49:21;17.47;;;8.20;;
7473;SDS011;3778;42.572;23.426;2023-02-12T08:51:50;20.63;;;9.37;;
7473;SDS011;3778;42.572;23.426;2023-02-12T08:54:18;27.90;;;12.33;;
7473;SDS011;3778;42.572;23.426;2023-02-12T08:56:46;15.83;;;9.70;;
7473;SDS011;3778;42.572;23.426;2023-02-12T08:59:13;17.97;;;9.57;;
7473;SDS011;3778;42.572;23.426;2023-02-12T09:01:41;22.30;;;10.53;;
7473;SDS011;3778;42.572;23.426;2023-02-12T09:04:10;13.60;;;7.73;;
7473;SDS011;3778;42.572;23.426;2023-02-12T09:06:43;20.93;;;10.63;;
7473;SDS011;3778;42.572;23.426;2023-02-12T09:09:11;21.20;;;10.33;;
7473;SDS011;3778;42.572;23.426;2023-02-12T09:11:37;18.10;;;10.37;;
7473;SDS011;3778;42.572;23.426;2023-02-12T09:14:05;22.13;;;10.77;;
7473;SDS011;3778;42.572;23.426;2023-02-12T09:16:34;12.23;;;7.37;;
7473;SDS011;3778;42.572;23.426;2023-02-12T09:19:02;20.37;;;9.63;;
7473;SDS011;3778;42.572;23.426;2023-02-12T09:21:29;20.73;;;10.10;;
7473;SDS011;3778;42.572;23.426;2023-02-12T09:23:57;30.77;;;11.83;;
7473;SDS011;3778;42.572;23.426;2023-02-12T09:26:24;22.27;;;10.63;;
7473;SDS011;3778;42.572;23.426;2023-02-12T09:28:51;23.33;;;10.47;;
7473;SDS011;3778;42.572;23.426;2023-02-12T09:31:19;25.17;;;10.57;;
7473;SDS011;3778;42.572;23.426;2023-02-12T09:33:50;25.13;;;13.80;;
7473;SDS011;3778;42.572;23.426;2023-02-12T09:36:17;24.83;;;12.13;;
7473;SDS011;3778;42.572;23.426;2023-02-12T09:38:44;23.37;;;14.53;;
7473;SDS011;3778;42.572;23.426;2023-02-12T09:41:17;20.57;;;12.63;;
7473;SDS011;3778;42.572;23.426;2023-02-12T09:44:04;15.93;;;10.47;;
7473;SDS011;3778;42.572;23.426;2023-02-12T09:46:35;22.20;;;11.40;;
7473;SDS011;3778;42.572;23.426;2023-02-12T09:49:08;20.10;;;10.30;;
7473;SDS011;3778;42.572;23.426;2023-02-12T09:51:36;22.57;;;11.03;;
7473;SDS011;3778;42.572;23.426;2023-02-12T09:54:05;23.43;;;11.60;;
7473;SDS011;3778;42.572;23.426;2023-02-12T09:56:37;20.77;;;9.07;;
7473;SDS011;3778;42.572;23.426;2023-02-12T09:59:06;14.43;;;8.97;;
7473;SDS011;3778;42.572;23.426;2023-02-12T10:01:34;15.97;;;9.27;;
7473;SDS011;3778;42.572;23.426;2023-02-12T10:04:01;20.47;;;9.43;;
7473;SDS011;3778;42.572;23.426;2023-02-12T10:06:32;20.50;;;10.37;;
7473;SDS011;3778;42.572;23.426;2023-02-12T10:09:22;22.23;;;9.93;;
7473;SDS011;3778;42.572;23.426;2023-02-12T10:12:02;21.83;;;11.90;;
7473;SDS011;3778;42.572;23.426;2023-02-12T10:14:39;18.20;;;9.57;;
7473;SDS011;3778;42.572;23.426;2023-02-12T10:17:36;21.80;;;11.33;;
7473;SDS011;3778;42.572;23.426;2023-02-12T10:20:18;19.20;;;9.97;;
7473;SDS011;3778;42.572;23.426;2023-02-12T10:22:59;15.47;;;9.37;;
7473;SDS011;3778;42.572;23.426;2023-02-12T10:25:39;23.67;;;11.70;;
7473;SDS011;3778;42.572;23.426;2023-02-12T10:28:15;25.40;;;12.87;;
7473;SDS011;3778;42.572;23.426;2023-02-12T10:30:47;21.33;;;12.70;;
7473;SDS011;3778;42.572;23.426;2023-02-12T10:33:18;24.07;;;12.00;;
7473;SDS011;3778;42.572;23.426;2023-02-12T10:35:49;22.40;;;12.03;;
7473;SDS011;3778;42.572;23.426;2023-02-12T10:38:20;15.93;;;9.43;;
7473;SDS011;3778;42.572;23.426;2023-02-12T10:40:51;22.10;;;12.60;;
7473;SDS011;3778;42.572;23.426;2023-02-12T10:43:23;22.23;;;10.67;;
7473;SDS011;3778;42.572;23.426;2023-02-12T10:45:50;14.23;;;8.77;;
7473;SDS011;3778;42.572;23.426;2023-02-12T10:48:18;16.90;;;9.33;;
7473;SDS011;3778;42.572;23.426;2023-02-12T10:50:49;19.10;;;9.50;;
7473;SDS011;3778;42.572;23.426;2023-02-12T10:53:24;12.53;;;9.00;;
7473;SDS011;3778;42.572;23.426;2023-02-12T10:56:10;26.20;;;12.57;;
7473;SDS011;3778;42.572;23.426;2023-02-12T10:58:50;30.23;;;13.07;;
7473;SDS011;3778;42.572;23.426;2023-02-12T11:01:19;25.57;;;14.47;;
7473;SDS011;3778;42.572;23.426;2023-02-12T11:03:50;26.40;;;12.73;;
7473;SDS011;3778;42.572;23.426;2023-02-12T11:06:18;24.63;;;13.93;;
7473;SDS011;3778;42.572;23.426;2023-02-12T11:08:47;20.37;;;10.97;;
7473;SDS011;3778;42.572;23.426;2023-02-12T11:11:15;27.07;;;13.63;;
7473;SDS011;3778;42.572;23.426;2023-02-12T11:13:46;27.93;;;14.37;;
7473;SDS011;3778;42.572;23.426;2023-02-12T11:16:26;29.00;;;14.93;;
7473;SDS011;3778;42.572;23.426;2023-02-12T11:18:58;30.37;;;15.57;;
7473;SDS011;3778;42.572;23.426;2023-02-12T11:21:28;28.23;;;14.73;;
7473;SDS011;3778;42.572;23.426;2023-02-12T11:23:56;30.83;;;17.10;;
7473;SDS011;3778;42.572;23.426;2023-02-12T11:26:43;26.17;;;15.17;;
7473;SDS011;3778;42.572;23.426;2023-02-12T11:29:18;30.73;;;15.33;;
7473;SDS011;3778;42.572;23.426;2023-02-12T11:31:58;21.03;;;11.97;;
7473;SDS011;3778;42.572;23.426;2023-02-12T11:34:26;30.07;;;13.53;;
7473;SDS011;3778;42.572;23.426;2023-02-12T11:36:54;28.63;;;15.10;;
7473;SDS011;3778;42.572;23.426;2023-02-12T11:39:21;25.33;;;15.07;;
7473;SDS011;3778;42.572;23.426;2023-02-12T11:41:52;23.10;;;13.80;;
7473;SDS011;3778;42.572;23.426;2023-02-12T11:44:23;29.63;;;15.30;;
7473;SDS011;3778;42.572;23.426;2023-02-12T11:46:53;29.83;;;16.00;;
7473;SDS011;3778;42.572;23.426;2023-02-12T11:49:23;29.13;;;14.40;;
7473;SDS011;3778;42.572;23.426;2023-02-12T11:51:54;29.70;;;15.03;;
7473;SDS011;3778;42.572;23.426;2023-02-12T11:54:23;24.03;;;12.13;;
7473;SDS011;3778;42.572;23.426;2023-02-12T11:56:52;25.87;;;13.93;;
7473;SDS011;3778;42.572;23.426;2023-02-12T11:59:23;26.23;;;14.47;;
7473;SDS011;3778;42.572;23.426;2023-02-12T12:01:57;29.83;;;15.47;;
7473;SDS011;3778;42.572;23.426;2023-02-12T12:04:27;26.67;;;14.30;;
7473;SDS011;3778;42.572;23.426;2023-02-12T12:07:00;24.33;;;13.67;;
7473;SDS011;3778;42.572;23.426;2023-02-12T12:09:32;29.50;;;14.73;;
7473;SDS011;3778;42.572;23.426;2023-02-12T12:12:07;32.30;;;14.40;;
7473;SDS011;3778;42.572;23.426;2023-02-12T12:14:41;26.73;;;15.53;;
7473;SDS011;3778;42.572;23.426;2023-02-12T12:17:31;22.63;;;13.63;;
7473;SDS011;3778;42.572;23.426;2023-02-12T12:20:24;29.47;;;14.90;;
7473;SDS011;3778;42.572;23.426;2023-02-12T12:22:56;25.80;;;13.50;;
7473;SDS011;3778;42.572;23.426;2023-02-12T12:25:28;28.20;;;15.07;;
7473;SDS011;3778;42.572;23.426;2023-02-12T12:28:02;29.87;;;15.10;;
7473;SDS011;3778;42.572;23.426;2023-02-12T12:30:50;30.57;;;16.60;;
7473;SDS011;3778;42.572;23.426;2023-02-12T12:33:25;29.00;;;14.23;;
7473;SDS011;3778;42.572;23.426;2023-02-12T12:39:00;23.17;;;12.37;;
7473;SDS011;3778;42.572;23.426;2023-02-12T12:41:38;20.27;;;11.60;;
7473;SDS011;3778;42.572;23.426;2023-02-12T12:44:15;20.33;;;10.00;;
7473;SDS011;3778;42.572;23.426;2023-02-12T12:47:01;23.93;;;11.87;;
7473;SDS011;3778;42.572;23.426;2023-02-12T12:49:47;25.40;;;13.37;;
7473;SDS011;3778;42.572;23.426;2023-02-12T12:52:30;25.03;;;13.30;;
7473;SDS011;3778;42.572;23.426;2023-02-12T12:58:29;20.83;;;12.43;;
7473;SDS011;3778;42.572;23.426;2023-02-12T13:01:11;21.93;;;11.20;;
7473;SDS011;3778;42.572;23.426;2023-02-12T13:03:57;23.97;;;12.17;;
7473;SDS011;3778;42.572;23.426;2023-02-12T13:06:44;28.90;;;13.93;;
7473;SDS011;3778;42.572;23.426;2023-02-12T13:09:27;24.23;;;13.23;;
7473;SDS011;3778;42.572;23.426;2023-02-12T13:12:08;21.03;;;11.40;;
7473;SDS011;3778;42.572;23.426;2023-02-12T13:14:55;22.17;;;11.63;;
7473;SDS011;3778;42.572;23.426;2023-02-12T13:17:30;30.80;;;14.30;;
7473;SDS011;3778;42.572;23.426;2023-02-12T13:20:07;26.03;;;14.47;;
7473;SDS011;3778;42.572;23.426;2023-02-12T13:22:41;26.00;;;12.37;;
7473;SDS011;3778;42.572;23.426;2023-02-12T13:25:17;27.50;;;14.10;;
7473;SDS011;3778;42.572;23.426;2023-02-12T13:27:50;29.10;;;14.40;;
7473;SDS011;3778;42.572;23.426;2023-02-12T13:30:20;26.37;;;13.37;;
7473;SDS011;3778;42.572;23.426;2023-02-12T13:32:50;29.20;;;15.37;;
7473;SDS011;3778;42.572;23.426;2023-02-12T13:35:28;36.10;;;16.50;;
7473;SDS011;3778;42.572;23.426;2023-02-12T13:37:58;28.03;;;13.63;;
7473;SDS011;3778;42.572;23.426;2023-02-12T13:40:26;26.57;;;13.97;;
7473;SDS011;3778;42.572;23.426;2023-02-12T13:42:54;27.93;;;15.93;;
7473;SDS011;3778;42.572;23.426;2023-02-12T13:45:34;27.33;;;15.13;;
7473;SDS011;3778;42.572;23.426;2023-02-12T13:48:14;21.63;;;10.83;;
7473;SDS011;3778;42.572;23.426;2023-02-12T13:50:55;26.30;;;13.77;;
7473;SDS011;3778;42.572;23.426;2023-02-12T13:53:33;26.43;;;14.57;;
7473;SDS011;3778;42.572;23.426;2023-02-12T13:56:14;22.77;;;13.27;;
7473;SDS011;3778;42.572;23.426;2023-02-12T13:58:51;25.63;;;13.77;;
7473;SDS011;3778;42.572;23.426;2023-02-12T14:06:59;25.93;;;14.20;;
7473;SDS011;3778;42.572;23.426;2023-02-12T14:09:31;25.80;;;14.63;;
7473;SDS011;3778;42.572;23.426;2023-02-12T14:12:02;25.93;;;13.70;;
7473;SDS011;3778;42.572;23.426;2023-02-12T14:14:31;26.17;;;15.03;;
7473;SDS011;3778;42.572;23.426;2023-02-12T14:20:05;22.03;;;12.37;;
7473;SDS011;3778;42.572;23.426;2023-02-12T14:22:56;30.10;;;15.40;;
7473;SDS011;3778;42.572;23.426;2023-02-12T14:25:33;29.73;;;15.83;;
7473;SDS011;3778;42.572;23.426;2023-02-12T14:37:16;28.07;;;15.17;;
7473;SDS011;3778;42.572;23.426;2023-02-12T14:42:59;33.63;;;17.10;;
7473;SDS011;3778;42.572;23.426;2023-02-12T14:45:28;34.33;;;17.40;;
7473;SDS011;3778;42.572;23.426;2023-02-12T14:47:57;31.60;;;16.13;;
7473;SDS011;3778;42.572;23.426;2023-02-12T14:50:27;37.70;;;18.27;;
7473;SDS011;3778;42.572;23.426;2023-02-12T14:53:05;37.37;;;17.53;;
7473;SDS011;3778;42.572;23.426;2023-02-12T14:55:50;30.53;;;17.93;;
7473;SDS011;3778;42.572;23.426;2023-02-12T14:58:20;30.60;;;16.40;;
7473;SDS011;3778;42.572;23.426;2023-02-12T15:00:50;36.67;;;16.73;;
7473;SDS011;3778;42.572;23.426;2023-02-12T15:03:21;29.13;;;16.80;;
7473;SDS011;3778;42.572;23.426;2023-02-12T15:05:55;32.40;;;17.20;;
7473;SDS011;3778;42.572;23.426;2023-02-12T15:08:27;32.50;;;17.90;;
7473;SDS011;3778;42.572;23.426;2023-02-12T15:11:03;31.50;;;15.73;;
7473;SDS011;3778;42.572;23.426;2023-02-12T15:13:41;32.53;;;17.13;;
7473;SDS011;3778;42.572;23.426;2023-02-12T15:16:14;32.90;;;18.40;;
7473;SDS011;3778;42.572;23.426;2023-02-12T15:18:49;36.40;;;17.17;;
7473;SDS011;3778;42.572;23.426;2023-02-12T15:21:21;29.80;;;16.40;;
7473;SDS011;3778;42.572;23.426;2023-02-12T15:23:57;39.70;;;19.80;;
7473;SDS011;3778;42.572;23.426;2023-02-12T15:26:29;38.93;;;19.83;;
7473;SDS011;3778;42.572;23.426;2023-02-12T15:29:00;32.13;;;18.07;;
7473;SDS011;3778;42.572;23.426;2023-02-12T15:31:28;35.67;;;18.63;;
7473;SDS011;3778;42.572;23.426;2023-02-12T15:33:57;41.30;;;22.47;;
7473;SDS011;3778;42.572;23.426;2023-02-12T15:36:26;31.60;;;16.97;;
7473;SDS011;3778;42.572;23.426;2023-02-12T15:38:55;38.97;;;19.33;;